Alto Sucuriu, Brazil
Current Conditions -  °F | °C
As of 8:00 PM on Wednesday 17 Dec 2014 (Local Time) from SBCG Reporting Station
Few Clouds Few Clouds  
Wind Chill: 73°   Ceiling: Unl
Heat Index: 73°   Visibility: 6mi
Dew Point: 72°   Wind: 5mph
Humidity: 94%   Direction: 140°SE
Pressure: 29.85"   Gusts: NA
Location:  19.32°S, 52.73°W
Report Text: SBCG 172300Z 14004KT 9999 FEW020 FEW030TCU 23/22 Q1011
Loading
Personal Weather Stations






























Interactive Weather Map New forecast layout! Learn more

10-Day Weather Forecast

Advertisements
Track Severe Weather on mobile